createdAt,value
2018-01-31T01:53:34.104Z,8.17
2018-01-31T01:56:03.396Z,8.15
2018-01-31T01:58:31.741Z,8.15
2018-01-31T02:01:00.052Z,8.17
2018-01-31T02:03:29.206Z,8.19
2018-01-31T02:05:57.508Z,8.21
2018-01-31T02:08:25.814Z,8.23
2018-01-31T02:10:54.913Z,8.25
2018-01-31T02:13:24.008Z,8.25
2018-01-31T02:15:52.332Z,8.25
2018-01-31T02:18:21.452Z,8.24
2018-01-31T02:20:49.766Z,8.24
2018-01-31T02:23:18.757Z,8.25
2018-01-31T02:25:47.766Z,8.26
2018-01-31T02:28:16.079Z,8.25
2018-01-31T02:30:45.127Z,8.25
2018-01-31T02:33:13.457Z,8.27
2018-01-31T02:35:42.582Z,8.30
2018-01-31T02:38:16.712Z,8.31
2018-01-31T02:40:45.009Z,8.32
2018-01-31T02:43:13.316Z,8.33
2018-01-31T02:45:41.638Z,8.35
2018-01-31T02:48:10.046Z,8.39
2018-01-31T02:50:38.351Z,8.43
2018-01-31T02:53:07.425Z,8.49
2018-01-31T02:55:35.747Z,8.53
2018-01-31T02:58:04.116Z,8.58
2018-01-31T03:00:32.433Z,8.64
2018-01-31T03:03:01.501Z,8.72
2018-01-31T03:05:29.811Z,8.79
2018-01-31T03:07:59.711Z,8.82
2018-01-31T03:10:28.027Z,8.87
2018-01-31T03:12:56.353Z,8.92
2018-01-31T03:15:24.677Z,8.99
2018-01-31T03:17:53.775Z,9.10
2018-01-31T03:20:22.133Z,9.21
2018-01-31T03:22:50.523Z,9.33
2018-01-31T03:25:18.871Z,9.44
2018-01-31T03:27:47.189Z,9.57
2018-01-31T03:30:15.510Z,9.64
2018-01-31T03:32:43.853Z,9.75
2018-01-31T03:35:12.989Z,9.84
2018-01-31T03:40:16.015Z,10.02
2018-01-31T03:42:44.395Z,10.11
2018-01-31T03:45:12.721Z,10.20
2018-01-31T03:47:41.018Z,10.25
2018-01-31T03:50:10.124Z,10.33
2018-01-31T03:52:38.757Z,10.36
2018-01-31T03:55:07.123Z,10.42
2018-01-31T03:57:35.449Z,10.48
2018-01-31T04:00:03.788Z,10.53
2018-01-31T04:02:32.954Z,10.56
2018-01-31T04:05:02.181Z,10.60
2018-01-31T04:07:30.503Z,10.64
2018-01-31T04:09:58.801Z,10.68
2018-01-31T04:12:27.955Z,10.70
2018-01-31T04:14:56.264Z,10.70
2018-01-31T04:17:24.571Z,10.72
2018-01-31T04:19:52.924Z,10.75
2018-01-31T04:22:21.213Z,10.74
2018-01-31T04:24:49.515Z,10.75
2018-01-31T04:27:17.827Z,10.76
2018-01-31T04:29:46.911Z,10.77
2018-01-31T04:32:15.981Z,10.80
2018-01-31T04:34:44.300Z,10.80
2018-01-31T04:37:13.471Z,10.83
2018-01-31T04:39:41.783Z,10.83
2018-01-31T04:42:10.891Z,10.84
2018-01-31T04:44:39.193Z,10.85
2018-01-31T04:47:07.490Z,10.87
2018-01-31T04:49:36.051Z,10.89
2018-01-31T04:52:04.361Z,10.90
2018-01-31T04:54:32.680Z,10.92
2018-01-31T04:57:01.753Z,10.91
2018-01-31T04:59:30.041Z,10.92
2018-01-31T05:01:58.383Z,10.91
2018-01-31T05:04:26.740Z,10.91
2018-01-31T05:06:55.026Z,10.89
2018-01-31T05:09:23.345Z,10.87
2018-01-31T05:11:51.791Z,10.87
2018-01-31T05:14:20.943Z,10.87
2018-01-31T05:16:49.247Z,10.86
2018-01-31T05:19:17.543Z,10.85
2018-01-31T05:21:46.644Z,10.85
2018-01-31T05:24:15.738Z,10.88
2018-01-31T05:26:44.867Z,10.89
2018-01-31T05:29:13.178Z,10.91
2018-01-31T05:31:41.503Z,10.93
2018-01-31T05:34:10.638Z,10.95
2018-01-31T05:36:38.936Z,10.95
2018-01-31T05:39:07.293Z,10.96
2018-01-31T05:41:36.619Z,10.98
2018-01-31T05:44:04.919Z,11.00
2018-01-31T05:46:33.229Z,11.02
2018-01-31T05:49:01.553Z,11.04
2018-01-31T05:51:29.850Z,11.03
2018-01-31T05:53:58.196Z,11.05
2018-01-31T05:56:26.517Z,11.07
2018-01-31T05:58:54.874Z,11.07
2018-01-31T06:01:23.179Z,11.08
2018-01-31T06:03:51.478Z,11.08
2018-01-31T06:06:19.790Z,11.08
2018-01-31T06:08:48.882Z,11.09
2018-01-31T06:11:17.178Z,11.09
2018-01-31T06:13:47.042Z,11.09
2018-01-31T06:16:15.365Z,11.11
2018-01-31T06:18:44.503Z,11.12
2018-01-31T06:21:12.841Z,11.12
2018-01-31T06:23:41.967Z,11.11
2018-01-31T06:26:10.363Z,11.13
2018-01-31T06:28:38.671Z,11.11
2018-01-31T06:31:06.983Z,11.12
2018-01-31T06:33:35.322Z,11.15
2018-01-31T06:36:03.640Z,11.14
2018-01-31T06:38:31.974Z,11.15
2018-01-31T06:41:00.393Z,11.15
2018-01-31T06:43:28.745Z,11.16
2018-01-31T06:45:57.084Z,11.17
2018-01-31T06:48:25.458Z,11.18
2018-01-31T06:50:53.781Z,11.19
2018-01-31T06:53:22.081Z,11.19
2018-01-31T06:55:50.382Z,11.19
2018-01-31T06:58:18.716Z,11.21
2018-01-31T07:00:47.790Z,11.23
2018-01-31T07:03:16.130Z,11.23
2018-01-31T07:05:44.451Z,11.23
2018-01-31T07:08:12.737Z,11.20
2018-01-31T07:10:41.046Z,11.23
2018-01-31T07:13:09.423Z,11.23
2018-01-31T07:15:38.493Z,11.26
2018-01-31T07:18:07.150Z,11.27
2018-01-31T07:20:35.452Z,11.29
2018-01-31T07:23:03.787Z,11.32
2018-01-31T07:25:32.099Z,11.31
2018-01-31T07:28:00.444Z,11.32
2018-01-31T07:30:28.786Z,11.30
2018-01-31T07:32:57.106Z,11.32
2018-01-31T07:35:25.425Z,11.32
2018-01-31T07:37:53.817Z,11.32
2018-01-31T07:40:22.110Z,11.32
2018-01-31T07:42:50.425Z,11.32
2018-01-31T07:45:19.521Z,11.32
2018-01-31T07:47:48.685Z,11.31
2018-01-31T07:50:17.805Z,11.32
2018-01-31T07:52:46.125Z,11.33
2018-01-31T07:55:14.435Z,11.32
2018-01-31T07:57:42.776Z,11.32
2018-01-31T08:00:11.094Z,11.33
2018-01-31T08:02:40.178Z,11.34
2018-01-31T08:05:08.547Z,11.35
2018-01-31T08:07:36.948Z,11.35
2018-01-31T08:10:05.286Z,11.35
2018-01-31T08:12:33.653Z,11.34
2018-01-31T08:15:01.973Z,11.32
2018-01-31T08:17:30.285Z,11.33
2018-01-31T08:19:58.597Z,11.31
2018-01-31T08:22:26.935Z,11.31
2018-01-31T08:24:55.316Z,11.31
2018-01-31T08:27:23.661Z,11.31
2018-01-31T08:29:52.722Z,11.30
2018-01-31T08:32:21.108Z,11.28
2018-01-31T08:34:49.446Z,11.30
2018-01-31T08:37:18.510Z,11.32
2018-01-31T08:39:48.327Z,11.33
2018-01-31T08:42:17.435Z,11.41
2018-01-31T08:44:45.753Z,11.42
2018-01-31T08:47:14.080Z,11.42
2018-01-31T08:49:43.249Z,11.42
2018-01-31T08:52:11.548Z,11.42
2018-01-31T08:54:39.859Z,11.40
2018-01-31T08:57:08.197Z,11.41
2018-01-31T08:59:37.280Z,11.39
2018-01-31T09:02:05.618Z,11.39
2018-01-31T09:04:33.911Z,11.38
2018-01-31T09:07:02.227Z,11.36
2018-01-31T09:09:30.557Z,11.36
2018-01-31T09:11:58.978Z,11.37
2018-01-31T09:14:28.061Z,11.33
2018-01-31T09:16:56.382Z,11.28
2018-01-31T09:19:24.750Z,11.21
2018-01-31T09:21:53.084Z,11.09
2018-01-31T09:24:21.405Z,10.97
2018-01-31T09:26:50.489Z,10.85
2018-01-31T09:29:19.195Z,10.72
2018-01-31T09:31:48.844Z,10.64
2018-01-31T09:34:17.155Z,10.54
2018-01-31T09:36:45.525Z,10.43
2018-01-31T09:39:13.846Z,10.34
2018-01-31T09:41:42.928Z,10.23
2018-01-31T09:44:11.235Z,10.15
2018-01-31T09:46:39.573Z,10.09
2018-01-31T09:49:07.907Z,10.01
2018-01-31T09:51:36.262Z,9.93
2018-01-31T09:54:04.564Z,9.89
2018-01-31T09:56:33.656Z,9.90
2018-01-31T10:01:19.986Z,9.89
2018-01-31T10:03:49.076Z,9.90
2018-01-31T10:06:17.387Z,9.91
2018-01-31T10:08:45.668Z,9.90
2018-01-31T10:11:13.949Z,9.87
2018-01-31T10:13:42.248Z,9.84
2018-01-31T10:16:10.730Z,9.80
2018-01-31T10:18:39.104Z,9.83
2018-01-31T10:21:07.482Z,9.88
2018-01-31T10:23:35.790Z,9.90
2018-01-31T10:26:04.112Z,9.92
2018-01-31T10:28:32.415Z,9.93
2018-01-31T10:31:01.621Z,9.95
2018-01-31T10:33:29.973Z,9.94
2018-01-31T10:35:59.032Z,9.92
2018-01-31T10:38:27.408Z,9.89
2018-01-31T10:40:55.680Z,9.87
2018-01-31T10:43:23.982Z,9.86
2018-01-31T10:45:53.067Z,9.89
2018-01-31T10:48:21.399Z,9.89
2018-01-31T10:50:49.695Z,9.91
2018-01-31T10:53:18.770Z,9.91
2018-01-31T10:58:16.102Z,10.02
2018-01-31T11:00:44.464Z,10.06
2018-01-31T11:03:13.518Z,10.13
2018-01-31T11:05:41.820Z,10.17
2018-01-31T11:08:10.150Z,10.20
2018-01-31T11:10:38.490Z,10.23
2018-01-31T11:13:06.821Z,10.21
2018-01-31T11:15:35.164Z,10.17
2018-01-31T11:18:04.250Z,10.19
2018-01-31T11:20:32.555Z,10.16
2018-01-31T11:23:00.868Z,10.12
2018-01-31T11:25:29.163Z,10.07
2018-01-31T11:27:57.488Z,10.04
2018-01-31T11:30:26.552Z,10.02
2018-01-31T11:32:54.960Z,10.03
2018-01-31T11:35:23.276Z,10.04
2018-01-31T11:37:51.614Z,10.07
2018-01-31T11:40:20.055Z,10.10
2018-01-31T11:42:49.144Z,10.16
2018-01-31T11:45:17.482Z,10.25
2018-01-31T11:47:45.806Z,10.34
2018-01-31T11:50:14.150Z,10.45
2018-01-31T11:52:42.484Z,10.56
2018-01-31T11:55:10.918Z,10.61
2018-01-31T11:57:39.244Z,10.68
2018-01-31T12:00:07.549Z,10.80
2018-01-31T12:02:35.910Z,10.85
2018-01-31T12:05:04.250Z,10.95
2018-01-31T12:07:32.597Z,11.04
2018-01-31T12:10:00.925Z,10.99
2018-01-31T12:12:48.761Z,10.99
2018-01-31T12:15:26.440Z,10.89
2018-01-31T12:17:55.532Z,10.73
2018-01-31T12:20:42.462Z,10.64
2018-01-31T12:23:28.592Z,10.64
2018-01-31T12:26:14.628Z,10.66
2018-01-31T12:32:36.436Z,10.71
2018-01-31T12:35:23.368Z,10.75
2018-01-31T12:38:09.540Z,10.82
2018-01-31T12:40:37.094Z,10.80
2018-01-31T12:43:05.392Z,10.82
2018-01-31T12:45:32.899Z,10.87
2018-01-31T12:48:06.941Z,10.92
2018-01-31T12:50:53.910Z,10.95
2018-01-31T13:07:18.922Z,10.01
2018-01-31T13:10:05.850Z,9.37
2018-01-31T13:12:52.708Z,9.02
2018-01-31T13:15:38.819Z,8.96
2018-01-31T13:32:05.570Z,8.58
2018-01-31T13:34:52.430Z,8.59
2018-01-31T13:37:44.123Z,8.67
2018-01-31T13:40:35.301Z,8.67
2018-01-31T13:56:58.029Z,8.55
2018-01-31T13:59:44.679Z,8.57
2018-01-31T14:02:31.389Z,8.57
2018-01-31T14:05:17.330Z,8.50
2018-01-31T14:08:04.367Z,8.48
2018-01-31T14:10:50.751Z,8.46
2018-01-31T14:13:31.609Z,8.52
2018-01-31T14:16:17.726Z,8.62
2018-01-31T14:19:03.910Z,8.60
2018-01-31T14:21:50.097Z,8.57
2018-01-31T14:24:36.842Z,8.48
2018-01-31T14:27:22.869Z,8.34
2018-01-31T14:30:09.560Z,8.30
2018-01-31T14:32:55.563Z,8.34
2018-01-31T14:35:42.700Z,8.42
2018-01-31T14:38:10.688Z,8.43
2018-01-31T14:40:38.208Z,8.42
2018-01-31T14:43:05.770Z,8.43
2018-01-31T14:45:33.303Z,8.43
2018-01-31T14:48:01.578Z,8.50
2018-01-31T14:50:29.996Z,8.62
2018-01-31T14:52:57.519Z,8.69
2018-01-31T14:55:25.034Z,8.74
2018-01-31T14:57:52.541Z,8.76
2018-01-31T15:00:20.060Z,8.75
2018-01-31T15:02:47.618Z,8.79
2018-01-31T15:05:15.171Z,8.84
2018-01-31T15:07:42.713Z,8.83
2018-01-31T15:10:11.026Z,8.80
2018-01-31T15:12:38.521Z,8.76
2018-01-31T15:15:06.040Z,8.70
2018-01-31T15:17:33.570Z,8.67
2018-01-31T15:20:01.093Z,8.67
2018-01-31T15:22:28.655Z,8.65
2018-01-31T15:24:57.367Z,8.65
2018-01-31T15:27:24.880Z,8.64
2018-01-31T15:29:52.394Z,8.64
2018-01-31T15:32:19.927Z,8.63
2018-01-31T15:34:47.933Z,8.62
2018-01-31T15:37:15.433Z,8.65
2018-01-31T15:39:43.717Z,8.66
2018-01-31T15:42:11.990Z,8.67
2018-01-31T15:44:40.290Z,8.70
2018-01-31T15:47:08.594Z,8.73
2018-01-31T15:49:36.115Z,8.76
2018-01-31T15:52:03.671Z,8.78
2018-01-31T15:54:31.159Z,8.77
2018-01-31T15:56:59.487Z,8.78
2018-01-31T15:59:27.034Z,8.79
2018-01-31T16:01:54.575Z,8.77
2018-01-31T16:04:22.867Z,8.80
2018-01-31T16:06:50.383Z,8.79
2018-01-31T16:09:19.423Z,8.78
2018-01-31T16:11:46.955Z,8.78
2018-01-31T16:14:14.469Z,8.75
2018-01-31T16:16:42.778Z,8.69
2018-01-31T16:19:28.977Z,8.64
2018-01-31T16:21:57.267Z,8.58
2018-01-31T16:24:25.707Z,8.51
2018-01-31T16:26:54.066Z,8.46
2018-01-31T16:29:46.527Z,8.45
2018-01-31T16:32:32.977Z,8.48
2018-01-31T16:35:02.057Z,8.47
2018-01-31T16:37:30.391Z,8.45
2018-01-31T16:39:58.711Z,8.44
2018-01-31T16:42:27.018Z,8.41
2018-01-31T16:44:56.121Z,8.46
2018-01-31T16:47:25.200Z,8.44
2018-01-31T16:49:54.075Z,8.46
2018-01-31T16:52:22.376Z,8.49
2018-01-31T16:54:52.198Z,8.53
2018-01-31T16:57:20.481Z,8.57
2018-01-31T16:59:48.788Z,8.61
2018-01-31T17:02:17.089Z,8.62
2018-01-31T17:04:45.387Z,8.62
2018-01-31T17:07:13.673Z,8.63
2018-01-31T17:09:41.960Z,8.68
2018-01-31T17:12:10.307Z,8.69
2018-01-31T17:14:38.597Z,8.71
2018-01-31T17:17:06.895Z,8.72
2018-01-31T17:19:35.181Z,8.68
2018-01-31T17:22:03.535Z,8.42
2018-01-31T17:24:31.813Z,8.22
2018-01-31T17:27:00.119Z,8.10
2018-01-31T17:29:28.463Z,8.00
2018-01-31T17:31:56.861Z,7.73
2018-01-31T17:34:25.965Z,7.50
2018-01-31T17:36:55.233Z,7.32
2018-01-31T17:39:23.517Z,7.20
2018-01-31T17:41:52.624Z,7.07
2018-01-31T17:44:22.701Z,6.90
2018-01-31T17:46:51.354Z,6.67
2018-01-31T17:49:19.714Z,6.54
2018-01-31T17:51:48.840Z,6.45
2018-01-31T17:54:17.131Z,6.35
2018-01-31T17:56:45.460Z,6.24
2018-01-31T17:59:13.809Z,6.16
2018-01-31T18:01:42.063Z,6.11
2018-01-31T18:04:10.354Z,6.02
2018-01-31T18:06:38.687Z,5.96
2018-01-31T18:09:07.749Z,5.92
2018-01-31T18:11:36.043Z,5.91
2018-01-31T18:14:04.354Z,5.89
2018-01-31T18:16:32.653Z,5.88
2018-01-31T18:19:01.797Z,5.85
2018-01-31T18:21:30.104Z,5.85
2018-01-31T18:23:58.415Z,5.87
2018-01-31T18:26:27.481Z,5.87
2018-01-31T18:28:55.762Z,5.85
2018-01-31T18:31:24.934Z,5.86
2018-01-31T18:33:53.222Z,5.89
2018-01-31T18:36:21.508Z,5.87
2018-01-31T18:38:49.962Z,5.88
2018-01-31T18:41:18.282Z,5.87
2018-01-31T18:43:46.580Z,5.88
2018-01-31T18:46:14.898Z,5.90
2018-01-31T18:48:43.186Z,5.93
2018-01-31T18:51:11.473Z,5.92
2018-01-31T18:53:39.777Z,5.94
2018-01-31T18:56:08.069Z,5.93
2018-01-31T18:58:36.384Z,5.95
2018-01-31T19:01:05.447Z,5.97
2018-01-31T19:03:34.514Z,5.98
2018-01-31T19:06:02.812Z,6.02
2018-01-31T19:08:31.130Z,6.05
2018-01-31T19:10:59.443Z,6.07
2018-01-31T19:13:27.755Z,6.09
2018-01-31T19:15:56.060Z,6.12
2018-01-31T19:18:24.595Z,6.18
2018-01-31T19:20:52.885Z,6.22
2018-01-31T19:23:21.193Z,6.24
2018-01-31T19:25:49.499Z,6.27
2018-01-31T19:28:17.823Z,6.29
2018-01-31T19:30:46.276Z,6.30
2018-01-31T19:33:14.607Z,6.31
2018-01-31T19:35:43.707Z,6.33
2018-01-31T19:38:12.047Z,6.33
2018-01-31T19:40:41.290Z,6.34
2018-01-31T19:43:09.632Z,6.40
2018-01-31T19:45:38.702Z,6.46
2018-01-31T19:48:07.020Z,6.51
2018-01-31T19:50:36.137Z,6.55
2018-01-31T19:53:04.448Z,6.55
2018-01-31T19:55:32.750Z,6.48
2018-01-31T19:58:01.097Z,6.36
2018-01-31T20:00:29.505Z,6.24
2018-01-31T20:02:58.138Z,6.16
2018-01-31T20:05:27.244Z,6.13
2018-01-31T20:07:56.314Z,6.12
2018-01-31T20:10:24.624Z,6.13
2018-01-31T20:12:53.678Z,6.17
2018-01-31T20:15:21.987Z,6.20
2018-01-31T20:17:50.292Z,6.25
2018-01-31T20:20:18.592Z,6.29
2018-01-31T20:22:46.874Z,6.34
2018-01-31T20:25:15.232Z,6.35
2018-01-31T20:27:43.537Z,6.36
2018-01-31T20:30:12.626Z,6.33
2018-01-31T20:32:40.974Z,6.29
2018-01-31T20:35:09.270Z,6.26
2018-01-31T20:37:38.614Z,6.24
2018-01-31T20:40:06.924Z,6.21
2018-01-31T20:42:35.208Z,6.19
2018-01-31T20:45:03.503Z,6.17
2018-01-31T20:47:31.863Z,6.16
2018-01-31T20:50:00.180Z,6.16
2018-01-31T20:52:29.248Z,6.15
2018-01-31T20:54:57.568Z,6.14
2018-01-31T20:59:52.234Z,6.24
2018-01-31T21:02:20.535Z,6.25
2018-01-31T21:04:48.824Z,6.23
2018-01-31T21:07:17.130Z,6.22
2018-01-31T21:09:46.246Z,6.25
2018-01-31T21:12:14.551Z,6.28
2018-01-31T21:14:42.844Z,6.35
2018-01-31T21:17:11.202Z,6.39
2018-01-31T21:19:39.578Z,6.41
2018-01-31T21:22:07.904Z,6.44
2018-01-31T21:24:36.255Z,6.48
2018-01-31T21:27:04.597Z,6.48
2018-01-31T21:29:33.702Z,6.48
2018-01-31T21:32:02.790Z,6.45
2018-01-31T21:34:31.076Z,6.41
2018-01-31T21:37:00.140Z,6.40
2018-01-31T21:39:28.453Z,6.45
2018-01-31T21:41:57.543Z,6.52
2018-01-31T21:44:25.852Z,6.52
2018-01-31T21:46:54.908Z,6.35
2018-01-31T21:49:23.201Z,6.21
2018-01-31T21:51:51.486Z,6.18
2018-01-31T21:54:19.788Z,6.18
2018-01-31T21:56:48.847Z,6.24
2018-01-31T21:59:17.892Z,6.31
2018-01-31T22:01:46.203Z,6.33
2018-01-31T22:04:14.506Z,6.33
2018-01-31T22:06:42.803Z,6.27
2018-01-31T22:09:11.088Z,6.25
2018-01-31T22:11:39.382Z,6.24
2018-01-31T22:14:08.452Z,6.24
2018-01-31T22:16:36.767Z,6.25
2018-01-31T22:19:05.900Z,6.28
2018-01-31T22:21:34.210Z,6.33
2018-01-31T22:24:02.512Z,6.36
2018-01-31T22:26:30.836Z,6.36
2018-01-31T22:28:59.132Z,6.37
2018-01-31T22:31:27.456Z,6.39
2018-01-31T22:33:55.738Z,6.43
2018-01-31T22:36:24.039Z,6.45
2018-01-31T22:38:53.106Z,6.46
2018-01-31T22:41:21.411Z,6.50
2018-01-31T22:43:49.719Z,6.51
2018-01-31T22:46:18.022Z,6.51
2018-01-31T22:48:46.326Z,6.61
2018-01-31T22:51:14.626Z,6.65
2018-01-31T22:53:42.968Z,6.71
2018-01-31T22:56:12.116Z,6.71
2018-01-31T22:58:40.461Z,6.71
2018-01-31T23:01:08.770Z,6.76
2018-01-31T23:03:37.069Z,6.81
2018-01-31T23:06:06.149Z,6.87
2018-01-31T23:08:34.454Z,6.86
2018-01-31T23:11:02.776Z,6.87
2018-01-31T23:13:31.098Z,6.85
2018-01-31T23:15:59.404Z,6.82
2018-01-31T23:18:28.456Z,6.78
2018-01-31T23:20:56.802Z,6.75
2018-01-31T23:23:25.100Z,6.79
2018-01-31T23:25:53.442Z,6.86
2018-01-31T23:28:22.526Z,6.90
2018-01-31T23:30:50.822Z,6.95
2018-01-31T23:33:19.900Z,6.98
2018-01-31T23:35:48.218Z,6.95
2018-01-31T23:38:16.514Z,6.93
2018-01-31T23:40:44.818Z,6.90
2018-01-31T23:43:13.136Z,6.92
2018-01-31T23:45:41.465Z,6.94
2018-01-31T23:48:09.870Z,6.96
2018-01-31T23:50:38.153Z,6.98
2018-01-31T23:53:06.444Z,6.98
2018-01-31T23:55:34.758Z,6.97
2018-01-31T23:58:05.622Z,6.96
